^^
Station Historical Data
Daily Summary for August 11, 2018 Units:  English    Metric   Both
« Previous Day
Next Day »
Daily Weekly Monthly Yearly Custom
  High: Low: Average:
Temperature: TemperatureF °F 48.9 °F 66.1 °F
Dew Point: DewpointF °F 29.8 °F 39.9 °F
Humidity: Humidity % 17 % 42 %
Wind Speed: WindSpeedMPH mph 0 mph 6.8 mph
Wind Gust: WindSpeedGustMPH mph - -
Wind:- - SE
Pressure: PressureIn in 29.93 in -
Precipitation: 0 in    
Historical Graphs
 
 
Tabular Data for August 11, 2018
Time Temperature Dew Point Pressure Wind Wind Speed Wind Gust Humidity Rainfall Rate (Hourly)
TemperatureF °F DewpointF °F PressureIn in Calm     Humidity % HourlyPrecipIn in
00:04 58.8 °F 45 °F 30.04 in SW 8.1 mph 8 mph 60 % 0 in
00:09 58.6 °F 44.8 °F 30.04 in SW 6.9 mph 7 mph 60 % 0 in
00:14 58.5 °F 45.1 °F 30.04 in SW 6 mph 7 mph 61 % 0 in
00:19 58.3 °F 45.3 °F 30.04 in SW 6 mph 9 mph 62 % 0 in
00:24 57.9 °F 44.6 °F 30.04 in SW 6.9 mph 10 mph 61 % 0 in
00:29 57.9 °F 45 °F 30.04 in SW 6.9 mph 9 mph 62 % 0 in
00:34 57.6 °F 44.6 °F 30.04 in SW 4 mph 8 mph 62 % 0 in
00:39 57 °F 45 °F 30.04 in SSW 6.9 mph 10 mph 64 % 0 in
00:44 56.7 °F 45 °F 30.04 in SW 4.9 mph 6 mph 65 % 0 in
00:49 56.7 °F 45 °F 30.04 in SSW 4 mph 7 mph 65 % 0 in
00:54 56.7 °F 45 °F 30.05 in SW 4.9 mph 6 mph 65 % 0 in
00:59 56.8 °F 44.8 °F 30.05 in SSW 6 mph 6 mph 64 % 0 in
01:04 56.7 °F 44.6 °F 30.04 in South 4 mph 8 mph 64 % 0 in
01:09 56.7 °F 45 °F 30.04 in SW 6.9 mph 8 mph 65 % 0 in
01:14 56.3 °F 44.6 °F 30.05 in SW 6.9 mph 7 mph 65 % 0 in
01:19 55.9 °F 44.8 °F 30.05 in ESE 4 mph 6 mph 66 % 0 in
01:24 55.6 °F 44.8 °F 30.05 in SSE 4.9 mph 8 mph 67 % 0 in
01:29 55.2 °F 44.8 °F 30.04 in SSE 6 mph 7 mph 68 % 0 in
01:34 55 °F 45.1 °F 30.04 in SW 6 mph 8 mph 69 % 0 in
01:39 55 °F 45.1 °F 30.04 in SSW 4 mph 10 mph 69 % 0 in
01:44 55 °F 45.1 °F 30.04 in WSW 8.9 mph 9 mph 69 % 0 in
01:49 55 °F 44.6 °F 30.04 in SSW 4.9 mph 8 mph 68 % 0 in
01:54 55 °F 44.6 °F 30.04 in SW 8.1 mph 9 mph 68 % 0 in
01:59 54.9 °F 44.4 °F 30.04 in SSW 6.9 mph 10 mph 68 % 0 in
02:04 54.7 °F 45.1 °F 30.04 in SSW 6 mph 11 mph 70 % 0 in
02:09 54.5 °F 44.6 °F 30.04 in SW 6.9 mph 8 mph 69 % 0 in
02:14 54.7 °F 44.8 °F 30.04 in WSW 6 mph 8 mph 69 % 0 in
02:19 54.7 °F 44.2 °F 30.04 in WSW 4 mph 9 mph 68 % 0 in
02:24 54.9 °F 44.4 °F 30.04 in SW 4.9 mph 8 mph 68 % 0 in
02:29 54.9 °F 43.7 °F 30.04 in South 6 mph 8 mph 66 % 0 in
02:34 54.9 °F 43.7 °F 30.04 in SW 6.9 mph 8 mph 66 % 0 in
02:39 54.9 °F 43 °F 30.04 in SW 4.9 mph 8 mph 64 % 0 in
02:44 55 °F 42.6 °F 30.04 in WSW 8.9 mph 9 mph 63 % 0 in
02:49 55.2 °F 42.8 °F 30.04 in SSW 6 mph 8 mph 63 % 0 in
02:54 55.2 °F 42.4 °F 30.04 in SSE 4 mph 10 mph 62 % 0 in
02:59 55.4 °F 42.3 °F 30.04 in SE 6 mph 10 mph 61 % 0 in
03:04 55.4 °F 42.3 °F 30.04 in ENE 10.1 mph 10 mph 61 % 0 in
03:09 54.9 °F 42.4 °F 30.04 in South 8.9 mph 12 mph 63 % 0 in
03:14 54 °F 42.4 °F 30.04 in SSW 10.1 mph 11 mph 65 % 0 in
03:19 52.9 °F 43 °F 30.04 in WSW 8.9 mph 11 mph 69 % 0 in
03:24 52.3 °F 43.9 °F 30.04 in SSE 12.1 mph 14 mph 73 % 0 in
03:29 51.4 °F 43.7 °F 30.04 in SSW 6.9 mph 14 mph 75 % 0 in
03:34 51.1 °F 43.2 °F 30.04 in SW 6.9 mph 14 mph 74 % 0 in
03:39 51.3 °F 43.3 °F 30.04 in SW 8.9 mph 12 mph 74 % 0 in
03:44 51.3 °F 42.6 °F 30.04 in South 8.9 mph 10 mph 72 % 0 in
03:49 51.4 °F 42.8 °F 30.04 in SSW 8.1 mph 11 mph 72 % 0 in
03:54 51.6 °F 43 °F 30.04 in SW 6.9 mph 10 mph 72 % 0 in
03:59 51.6 °F 43 °F 30.04 in SW 11 mph 11 mph 72 % 0 in
04:04 51.4 °F 42.4 °F 30.04 in SSW 6.9 mph 12 mph 71 % 0 in
04:09 51.4 °F 41.9 °F 30.04 in SW 8.1 mph 11 mph 70 % 0 in
04:14 51.6 °F 41.4 °F 30.04 in SSW 8.9 mph 11 mph 68 % 0 in
04:19 51.6 °F 41 °F 30.04 in SW 6 mph 9 mph 67 % 0 in
04:24 52.2 °F 41.5 °F 30.04 in SW 8.1 mph 8 mph 67 % 0 in
04:29 51.4 °F 41.2 °F 30.04 in South 6 mph 9 mph 68 % 0 in
04:34 50.9 °F 41.2 °F 30.04 in SSW 6.9 mph 10 mph 69 % 0 in
04:39 50.9 °F 41.5 °F 30.04 in SW 8.1 mph 11 mph 70 % 0 in
04:44 51.1 °F 41.2 °F 30.04 in SW 6 mph 9 mph 69 % 0 in
04:49 51.3 °F 41.4 °F 30.04 in WSW 6.9 mph 10 mph 69 % 0 in
04:54 51.1 °F 41.2 °F 30.04 in SW 6.9 mph 11 mph 69 % 0 in
04:59 50.7 °F 40.5 °F 30.04 in WSW 6.9 mph 9 mph 68 % 0 in
05:04 50.5 °F 40.8 °F 30.04 in South 6 mph 9 mph 69 % 0 in
05:09 50.2 °F 40.5 °F 30.04 in SW 6 mph 8 mph 69 % 0 in
05:14 50.2 °F 40.1 °F 30.04 in SW 6 mph 11 mph 68 % 0 in
05:19 49.8 °F 40.1 °F 30.04 in SSW 6.9 mph 12 mph 69 % 0 in
05:24 49.6 °F 40.6 °F 30.04 in SSW 11 mph 11 mph 71 % 0 in
05:29 49.3 °F 40.3 °F 30.04 in SSW 8.9 mph 11 mph 71 % 0 in
05:34 49.1 °F 40.1 °F 30.04 in SW 8.9 mph 10 mph 71 % 0 in
05:39 48.9 °F 40.3 °F 30.05 in WSW 8.9 mph 10 mph 72 % 0 in
05:44 49.1 °F 39.7 °F 30.05 in SW 8.1 mph 11 mph 70 % 0 in
05:49 49.3 °F 39.2 °F 30.05 in SW 8.1 mph 9 mph 68 % 0 in
05:54 49.3 °F 38.8 °F 30.05 in SW 6.9 mph 9 mph 67 % 0 in
05:59 49.1 °F 39.4 °F 30.05 in SW 4.9 mph 8 mph 69 % 0 in
06:04 49.3 °F 39.2 °F 30.05 in SW 6.9 mph 8 mph 68 % 0 in
06:09 49.1 °F 39 °F 30.05 in SE 4.9 mph 10 mph 68 % 0 in
06:14 49.3 °F 39.6 °F 30.06 in WSW 8.1 mph 9 mph 69 % 0 in
06:19 49.1 °F 39 °F 30.06 in West 6 mph 11 mph 68 % 0 in
06:24 48.9 °F 39.2 °F 30.06 in SW 6 mph 9 mph 69 % 0 in
06:29 49.1 °F 38.7 °F 30.06 in SSW 4.9 mph 6 mph 67 % 0 in
06:34 49.5 °F 39 °F 30.06 in SW 6.9 mph 8 mph 67 % 0 in
06:39 49.6 °F 39.2 °F 30.06 in WSW 6 mph 10 mph 67 % 0 in
06:44 49.8 °F 38.8 °F 30.07 in SSW 4.9 mph 10 mph 66 % 0 in
06:49 50.2 °F 39.6 °F 30.07 in SSW 4.9 mph 10 mph 67 % 0 in
06:54 50.9 °F 39.6 °F 30.07 in SW 4.9 mph 7 mph 65 % 0 in
06:59 51.4 °F 38.8 °F 30.07 in SSW 6 mph 7 mph 62 % 0 in
07:04 51.8 °F 38.8 °F 30.07 in SW 6 mph 7 mph 61 % 0 in
07:09 52.2 °F 38.3 °F 30.07 in SW 4.9 mph 10 mph 59 % 0 in
07:14 52.9 °F 38.5 °F 30.07 in SW 4.9 mph 6 mph 58 % 0 in
07:19 53.1 °F 38.3 °F 30.07 in SW 4.9 mph 7 mph 57 % 0 in
07:24 53.1 °F 38.7 °F 30.07 in SW 4.9 mph 7 mph 58 % 0 in
07:29 53.4 °F 38.5 °F 30.07 in South 4 mph 6 mph 57 % 0 in
07:34 54.1 °F 38.8 °F 30.07 in SSW 2.9 mph 6 mph 56 % 0 in
07:39 55 °F 38.7 °F 30.07 in SSW 4.9 mph 8 mph 54 % 0 in
07:44 55.4 °F 39 °F 30.07 in WSW 6 mph 7 mph 54 % 0 in
07:49 55.6 °F 39.7 °F 30.07 in SW 6 mph 7 mph 55 % 0 in
07:54 55.9 °F 40.5 °F 30.07 in SW 4 mph 5 mph 56 % 0 in
07:59 56.8 °F 40.5 °F 30.07 in WSW 0.9 mph 2 mph 54 % 0 in
08:04 57.9 °F 40.8 °F 30.07 in WSW 2 mph 2 mph 53 % 0 in
08:09 59 °F 41.4 °F 30.07 in Calm   1 mph 52 % 0 in
08:14 60.4 °F 41.7 °F 30.07 in Calm     50 % 0 in
08:19 61.3 °F 42.1 °F 30.07 in SSE 0.9 mph 2 mph 49 % 0 in
08:24 62.4 °F 41.4 °F 30.07 in Calm     46 % 0 in
08:29 63 °F 41.4 °F 30.07 in Calm     45 % 0 in
08:34 64 °F 42.3 °F 30.07 in Calm     45 % 0 in
08:39 64.4 °F 42.1 °F 30.07 in WSW 0.9 mph 2 mph 44 % 0 in
08:44 64.6 °F 42.8 °F 30.07 in SW 0.9 mph 2 mph 45 % 0 in
08:49 64.9 °F 42.4 °F 30.07 in WSW 2 mph 3 mph 44 % 0 in
08:54 65.5 °F 42.4 °F 30.06 in West 0.9 mph 1 mph 43 % 0 in
08:59 65.8 °F 42.1 °F 30.06 in Calm   1 mph 42 % 0 in
09:04 66.7 °F 41.7 °F 30.06 in Calm   1 mph 40 % 0 in
09:09 67.6 °F 42.4 °F 30.06 in Calm   1 mph 40 % 0 in
09:14 68.2 °F 42.3 °F 30.06 in Calm   2 mph 39 % 0 in
09:19 68.7 °F 42.1 °F 30.06 in Calm   1 mph 38 % 0 in
09:24 70 °F 42.4 °F 30.05 in North 4 mph 4 mph 37 % 0 in
09:29 71.4 °F 43.2 °F 30.05 in East 6.9 mph 7 mph 36 % 0 in
09:34 72.1 °F 43.7 °F 30.05 in ENE 2.9 mph 7 mph 36 % 0 in
09:39 72 °F 43.5 °F 30.05 in ENE 2.9 mph 6 mph 36 % 0 in
09:44 73 °F 43.7 °F 30.05 in NE 2.9 mph 5 mph 35 % 0 in
09:49 73.4 °F 43.3 °F 30.05 in NE 4 mph 6 mph 34 % 0 in
09:54 72.7 °F 43.5 °F 30.05 in NE 2.9 mph 8 mph 35 % 0 in
09:59 73 °F 43.7 °F 30.04 in NE 2 mph 4 mph 35 % 0 in
10:04 73.2 °F 43.2 °F 30.04 in NNW 2 mph 5 mph 34 % 0 in
10:09 73 °F 43 °F 30.04 in North 2.9 mph 6 mph 34 % 0 in
10:14 73 °F 43 °F 30.04 in North 4.9 mph 8 mph 34 % 0 in
10:19 73.8 °F 43.7 °F 30.04 in East 8.1 mph 8 mph 34 % 0 in
10:24 74.3 °F 44.1 °F 30.04 in ENE 4.9 mph 7 mph 34 % 0 in
10:29 74.1 °F 44.8 °F 30.04 in North 4.9 mph 10 mph 35 % 0 in
10:34 73.8 °F 45.1 °F 30.04 in NE 6.9 mph 12 mph 36 % 0 in
10:39 73 °F 45.1 °F 30.04 in NE 8.1 mph 10 mph 37 % 0 in
10:44 72.9 °F 45.1 °F 30.03 in NE 10.1 mph 13 mph 37 % 0 in
10:49 73.6 °F 46.4 °F 30.03 in NE 8.1 mph 12 mph 38 % 0 in
10:54 73.6 °F 45.7 °F 30.03 in NE 8.9 mph 13 mph 37 % 0 in
10:59 73.4 °F 45.5 °F 30.03 in NE 13 mph 13 mph 37 % 0 in
11:04 73.8 °F 45.9 °F 30.03 in NE 8.9 mph 12 mph 37 % 0 in
11:09 73.8 °F 45.9 °F 30.02 in ENE 8.1 mph 13 mph 37 % 0 in
11:14 74.8 °F 46 °F 30.02 in NE 10.1 mph 16 mph 36 % 0 in
11:19 74.5 °F 46.6 °F 30.02 in NNE 13 mph 13 mph 37 % 0 in
11:24 74.7 °F 46.6 °F 30.02 in ENE 8.1 mph 20 mph 37 % 0 in
11:29 75.2 °F 47.8 °F 30.02 in NE 10.1 mph 12 mph 38 % 0 in
11:34 75.6 °F 47.5 °F 30.01 in ENE 10.1 mph 10 mph 37 % 0 in
11:39 74.8 °F 46.8 °F 30.01 in NE 6.9 mph 19 mph 37 % 0 in
11:44 74.8 °F 47.5 °F 30.01 in ENE 19 mph 19 mph 38 % 0 in
11:49 75.7 °F 46.2 °F 30.01 in ENE 10.1 mph 14 mph 35 % 0 in
11:54 75.4 °F 45.1 °F 30.01 in ENE 4 mph 16 mph 34 % 0 in
11:59 75.4 °F 46.6 °F 30.01 in ENE 14.1 mph 14 mph 36 % 0 in
12:04 76.3 °F 46.6 °F 30.01 in ENE 11 mph 15 mph 35 % 0 in
12:09 76.3 °F 45.1 °F 30.01 in ENE 8.1 mph 9 mph 33 % 0 in
12:14 76.3 °F 44.2 °F 30.00 in ENE 15 mph 18 mph 32 % 0 in
12:19 75.7 °F 44.6 °F 30.00 in ENE 8.1 mph 8 mph 33 % 0 in
12:24 76.6 °F 43.7 °F 30.00 in NE 6.9 mph 17 mph 31 % 0 in
12:29 76.1 °F 44.1 °F 30.00 in ENE 10.1 mph 13 mph 32 % 0 in
12:34 77.4 °F 45.1 °F 30.00 in NE 11 mph 14 mph 32 % 0 in
12:39 77.5 °F 45.3 °F 30.00 in ENE 10.1 mph 18 mph 32 % 0 in
12:44 76.8 °F 43.9 °F 30.00 in ENE 13 mph 16 mph 31 % 0 in
12:49 77.2 °F 45 °F 30.00 in ENE 6 mph 13 mph 32 % 0 in
12:54 77.7 °F 43 °F 30.00 in ENE 14.1 mph 17 mph 29 % 0 in
12:59 77.7 °F 43 °F 30.00 in ENE 6 mph 12 mph 29 % 0 in
13:04 78.3 °F 42.4 °F 29.99 in NE 12.1 mph 16 mph 28 % 0 in
13:09 77.7 °F 41 °F 29.99 in ENE 11 mph 12 mph 27 % 0 in
13:14 78.3 °F 39.6 °F 29.99 in NE 8.1 mph 14 mph 25 % 0 in
13:19 77.9 °F 40.3 °F 30.00 in ENE 11 mph 15 mph 26 % 0 in
13:24 78.3 °F 40.6 °F 30.00 in ENE 14.1 mph 18 mph 26 % 0 in
13:29 78.4 °F 38.7 °F 30.00 in ENE 8.1 mph 12 mph 24 % 0 in
13:34 78.4 °F 38.7 °F 29.99 in ENE 8.1 mph 14 mph 24 % 0 in
13:39 78.6 °F 35.4 °F 29.99 in ENE 12.1 mph 17 mph 21 % 0 in
13:44 77.2 °F 34.2 °F 29.99 in ENE 8.9 mph 15 mph 21 % 0 in
13:49 78.1 °F 37.2 °F 29.99 in NE 8.1 mph 12 mph 23 % 0 in
13:54 77.7 °F 34.7 °F 29.99 in NE 6 mph 13 mph 21 % 0 in
13:59 78.1 °F 34.9 °F 29.99 in NE 10.1 mph 13 mph 21 % 0 in
14:04 78.6 °F 35.4 °F 29.99 in NE 12.1 mph 16 mph 21 % 0 in
14:09 78.4 °F 38.7 °F 29.99 in NE 4.9 mph 14 mph 24 % 0 in
14:14 78.1 °F 37.2 °F 29.99 in NE 12.1 mph 17 mph 23 % 0 in
14:19 78.1 °F 37.2 °F 29.98 in ENE 14.1 mph 22 mph 23 % 0 in
14:24 77.9 °F 34.9 °F 29.98 in NE 15 mph 21 mph 21 % 0 in
14:29 77.9 °F 36 °F 29.98 in ENE 10.1 mph 11 mph 22 % 0 in
14:34 79.2 °F 37 °F 29.98 in NE 16.1 mph 18 mph 22 % 0 in
14:39 78.8 °F 34.3 °F 29.98 in NNE 4.9 mph 21 mph 20 % 0 in
14:44 78.3 °F 32.5 °F 29.98 in East 13 mph 20 mph 19 % 0 in
14:49 78.3 °F 29.8 °F 29.98 in NE 15 mph 16 mph 17 % 0 in
14:54 78.8 °F 30.4 °F 29.98 in ENE 4 mph 14 mph 17 % 0 in
14:59 79.3 °F 34.7 °F 29.97 in ENE 10.1 mph 15 mph 20 % 0 in
15:04 78.4 °F 30 °F 29.97 in ENE 6.9 mph 16 mph 17 % 0 in
15:09 78.6 °F 32.9 °F 29.97 in ENE 4.9 mph 11 mph 19 % 0 in
15:14 78.4 °F 36.5 °F 29.96 in ENE 19.9 mph 22 mph 22 % 0 in
15:19 78.4 °F 38.7 °F 29.96 in ENE 12.1 mph 19 mph 24 % 0 in
15:24 78.4 °F 38.7 °F 29.96 in ENE 4.9 mph 21 mph 24 % 0 in
15:29 78.8 °F 39 °F 29.96 in ENE 17.9 mph 22 mph 24 % 0 in
15:34 78.4 °F 32.7 °F 29.96 in ENE 6 mph 19 mph 19 % 0 in
15:39 79 °F 35.8 °F 29.95 in ENE 8.1 mph 14 mph 21 % 0 in
15:44 79 °F 36.9 °F 29.95 in ENE 16.1 mph 22 mph 22 % 0 in
15:49 79.3 °F 38.3 °F 29.95 in NE 13 mph 16 mph 23 % 0 in
15:54 79.3 °F 38.3 °F 29.95 in NE 8.1 mph 16 mph 23 % 0 in
15:59 79.3 °F 38.3 °F 29.95 in NE 12.1 mph 19 mph 23 % 0 in
16:04 79.2 °F 38.1 °F 29.94 in ENE 17.9 mph 20 mph 23 % 0 in
16:09 78.6 °F 38.8 °F 29.95 in ENE 6.9 mph 13 mph 24 % 0 in
16:14 78.4 °F 39.7 °F 29.95 in ENE 11 mph 13 mph 25 % 0 in
16:19 79 °F 37.9 °F 29.94 in NE 8.9 mph 18 mph 23 % 0 in
16:24 79 °F 37.9 °F 29.94 in NE 6.9 mph 13 mph 23 % 0 in
16:29 79.3 °F 37.2 °F 29.94 in ENE 8.1 mph 8 mph 22 % 0 in
16:34 80.1 °F 37.8 °F 29.94 in NW 4 mph 17 mph 22 % 0 in
16:39 79.5 °F 37.4 °F 29.94 in ENE 6 mph 11 mph 22 % 0 in
16:44 79.2 °F 35.8 °F 29.94 in ENE 20 mph 20 mph 21 % 0 in
16:49 79.2 °F 37 °F 29.94 in ENE 6 mph 9 mph 22 % 0 in
16:54 79 °F 35.8 °F 29.94 in ENE 8.9 mph 21 mph 21 % 0 in
16:59 79.2 °F 35.8 °F 29.93 in ENE 6.9 mph 17 mph 21 % 0 in
17:04 79.3 °F 34.7 °F 29.93 in NNE 6.9 mph 14 mph 20 % 0 in
17:09 79.2 °F 35.8 °F 29.93 in ENE 6.9 mph 13 mph 21 % 0 in
17:14 79.3 °F 34.7 °F 29.93 in ENE 8.9 mph 13 mph 20 % 0 in
17:19 79.2 °F 35.8 °F 29.93 in ENE 10.1 mph 14 mph 21 % 0 in
17:24 79.2 °F 34.7 °F 29.93 in ENE 11 mph 16 mph 20 % 0 in
17:29 79.3 °F 34.7 °F 29.93 in ENE 6 mph 15 mph 20 % 0 in
17:34 79.3 °F 33.4 °F 29.93 in NE 12.1 mph 16 mph 19 % 0 in
17:39 78.8 °F 33.1 °F 29.93 in ENE 4.9 mph 11 mph 19 % 0 in
17:44 79 °F 31.8 °F 29.93 in ENE 4.9 mph 12 mph 18 % 0 in
17:49 79.2 °F 33.4 °F 29.93 in ENE 8.9 mph 13 mph 19 % 0 in
17:54 79 °F 33.3 °F 29.93 in ENE 6 mph 12 mph 19 % 0 in
17:59 79.2 °F 33.4 °F 29.93 in NNW 2.9 mph 6 mph 19 % 0 in
18:04 79.5 °F 33.6 °F 29.93 in North 2.9 mph 11 mph 19 % 0 in
18:09 79.3 °F 32.2 °F 29.93 in ENE 6 mph 13 mph 18 % 0 in
18:14 79 °F 33.3 °F 29.93 in East 6 mph 7 mph 19 % 0 in
18:19 79 °F 33.3 °F 29.93 in ENE 10.1 mph 13 mph 19 % 0 in
18:24 78.8 °F 34.3 °F 29.93 in ENE 4.9 mph 11 mph 20 % 0 in
18:29 78.6 °F 34.2 °F 29.93 in ENE 8.9 mph 13 mph 20 % 0 in
18:34 78.4 °F 34 °F 29.93 in ENE 4.9 mph 10 mph 20 % 0 in
18:39 78.6 °F 34.2 °F 29.93 in NNE 0.9 mph 3 mph 20 % 0 in
18:44 79.2 °F 33.4 °F 29.93 in Calm   1 mph 19 % 0 in
18:49 79.2 °F 33.4 °F 29.93 in ENE 13 mph 13 mph 19 % 0 in
18:54 78.4 °F 34 °F 29.93 in ENE 6 mph 11 mph 20 % 0 in
18:59 78.3 °F 34 °F 29.93 in ENE 10.1 mph 11 mph 20 % 0 in
19:04 78.1 °F 33.8 °F 29.93 in ENE 4.9 mph 9 mph 20 % 0 in
19:09 77.7 °F 33.4 °F 29.93 in East 6.9 mph 8 mph 20 % 0 in
19:14 77.9 °F 33.6 °F 29.93 in ENE 6 mph 7 mph 20 % 0 in
19:19 77.7 °F 34.7 °F 29.93 in ENE 2 mph 6 mph 21 % 0 in
19:24 77.5 °F 37.9 °F 29.93 in ENE 11 mph 11 mph 24 % 0 in
19:29 76.8 °F 40.3 °F 29.93 in ENE 8.1 mph 12 mph 27 % 0 in
19:34 76.1 °F 40.6 °F 29.93 in ENE 11 mph 15 mph 28 % 0 in
19:39 75.4 °F 41 °F 29.93 in East 8.1 mph 13 mph 29 % 0 in
19:44 74.8 °F 41.4 °F 29.93 in ENE 6 mph 13 mph 30 % 0 in
19:49 74.5 °F 41 °F 29.93 in NNE 4 mph 10 mph 30 % 0 in
19:54 74.1 °F 41.5 °F 29.93 in East 6.9 mph 7 mph 31 % 0 in
19:59 73.6 °F 41 °F 29.93 in ENE 2 mph 5 mph 31 % 0 in
20:04 73.2 °F 41.5 °F 29.93 in ENE 4.9 mph 6 mph 32 % 0 in
20:09 72.7 °F 41.2 °F 29.93 in NE 2 mph 4 mph 32 % 0 in
20:14 72.3 °F 40.8 °F 29.93 in ENE 6 mph 7 mph 32 % 0 in
20:19 72 °F 40.5 °F 29.93 in ENE 2 mph 3 mph 32 % 0 in
20:24 71.6 °F 41 °F 29.93 in Calm   1 mph 33 % 0 in
20:29 71.2 °F 40.6 °F 29.93 in Calm   3 mph 33 % 0 in
20:34 70.9 °F 40.3 °F 29.93 in ENE 2 mph 3 mph 33 % 0 in
20:39 70.7 °F 41 °F 29.93 in ENE 0.9 mph 2 mph 34 % 0 in
20:44 70.7 °F 41 °F 29.93 in ENE 2 mph 4 mph 34 % 0 in
20:49 70.5 °F 40.8 °F 29.94 in Calm   1 mph 34 % 0 in
20:54 69.8 °F 39.4 °F 29.94 in SW 6 mph 7 mph 33 % 0 in
20:59 68.7 °F 38.5 °F 29.94 in South 6 mph 10 mph 33 % 0 in
21:04 67.8 °F 38.5 °F 29.95 in WSW 4.9 mph 9 mph 34 % 0 in
21:09 67.3 °F 38.7 °F 29.95 in SSE 4 mph 9 mph 35 % 0 in
21:14 66.7 °F 38.3 °F 29.96 in SW 4 mph 7 mph 35 % 0 in
21:19 66.4 °F 37.9 °F 29.96 in SSW 4.9 mph 8 mph 35 % 0 in
21:24 66 °F 37.6 °F 29.96 in SW 6.9 mph 7 mph 35 % 0 in
21:29 66 °F 38.3 °F 29.96 in SSE 8.1 mph 9 mph 36 % 0 in
21:34 65.5 °F 37.8 °F 29.97 in SSE 6.9 mph 10 mph 36 % 0 in
21:39 64.8 °F 37.9 °F 29.97 in South 6.9 mph 10 mph 37 % 0 in
21:44 64.8 °F 37.2 °F 29.97 in SW 6 mph 8 mph 36 % 0 in
21:49 64.9 °F 37.4 °F 29.98 in SW 8.1 mph 10 mph 36 % 0 in
21:54 64.6 °F 37 °F 29.97 in SSW 4.9 mph 9 mph 36 % 0 in
21:59 64 °F 36.5 °F 29.97 in SW 6 mph 7 mph 36 % 0 in
22:04 64 °F 37.2 °F 29.98 in SW 2.9 mph 9 mph 37 % 0 in
22:09 63.7 °F 36.9 °F 29.98 in South 4.9 mph 11 mph 37 % 0 in
22:14 63.3 °F 37.2 °F 29.98 in SSW 6.9 mph 10 mph 38 % 0 in
22:19 63.3 °F 37.2 °F 29.98 in SSW 4.9 mph 9 mph 38 % 0 in
22:24 63.1 °F 37 °F 29.98 in SSW 8.1 mph 9 mph 38 % 0 in
22:29 62.8 °F 38.1 °F 29.98 in SW 6.9 mph 10 mph 40 % 0 in
22:34 62.4 °F 38.5 °F 29.98 in SSE 6.9 mph 9 mph 41 % 0 in
22:39 62.1 °F 38.1 °F 29.98 in South 6 mph 8 mph 41 % 0 in
22:44 61.5 °F 38.3 °F 29.98 in East 6 mph 9 mph 42 % 0 in
22:49 61.5 °F 38.3 °F 29.98 in SW 11 mph 12 mph 42 % 0 in
22:54 61.5 °F 37.6 °F 29.98 in South 6.9 mph 10 mph 41 % 0 in
22:59 61.3 °F 37.4 °F 29.98 in NNE 4.9 mph 8 mph 41 % 0 in
23:04 61 °F 37 °F 29.98 in South 4 mph 7 mph 41 % 0 in
23:09 60.4 °F 36.7 °F 29.98 in South 6 mph 8 mph 41 % 0 in
23:14 60.1 °F 36.9 °F 29.98 in South 6 mph 9 mph 42 % 0 in
23:19 59.7 °F 37.2 °F 29.98 in SW 6.9 mph 9 mph 43 % 0 in
23:24 59.5 °F 37 °F 29.98 in WSW 8.1 mph 10 mph 43 % 0 in
23:29 58.8 °F 37 °F 29.98 in SW 8.1 mph 10 mph 44 % 0 in
23:34 58.6 °F 37.4 °F 29.98 in WSW 8.1 mph 8 mph 45 % 0 in
23:39 58.3 °F 37 °F 29.98 in SSE 4 mph 7 mph 45 % 0 in
23:44 58.3 °F 37 °F 29.98 in SW 4.9 mph 7 mph 45 % 0 in
23:49 57.9 °F 36.7 °F 29.98 in SW 6 mph 8 mph 45 % 0 in
23:54 57.7 °F 36.5 °F 29.98 in SW 4.9 mph 9 mph 45 % 0 in
23:59 57.7 °F 36.5 °F 29.98 in SW 4.9 mph 7 mph 45 % 0 in
Evergreen Colorado, USA
Compliments of Weather Underground - 3.5 mb